Time;durP1;ratioP1;P1;durP2;ratioP2;P2;SDS_P1;SDS_P2;PMS_P1;PMS_P2;Temp;Humidity;BMP_temperature;BMP_pressure;BME280_temperature;BME280_humidity;BME280_pressure;Samples;Min_cycle;Max_cycle;Signal;HPM_P1;HPM_P2
2022/12/05 05:30:33;;;;;;;;;45.75;37.00;;;;;5.41;70.90;101388.44;5061070;27;45452;-72
2022/12/05 05:32:59;;;;;;;;;50.25;38.00;;;;;5.40;71.29;101384.03;5052567;28;45638;-74
2022/12/05 05:35:24;;;;;;;;;41.25;37.00;;;;;5.41;71.70;101384.91;5054274;28;45381;-75
2022/12/05 05:37:50;;;;;;;;;36.00;34.25;;;;;5.43;72.21;101386.66;5054227;28;45357;-75
2022/12/05 05:40:15;;;;;;;;;41.25;35.25;;;;;5.44;71.96;101388.41;5036532;28;45473;-76
2022/12/05 05:42:47;;;;;;;;;37.50;28.75;;;;;5.46;71.26;101394.56;5054444;28;45315;-74
2022/12/05 05:45:14;;;;;;;;;36.75;31.25;;;;;5.49;70.86;101393.66;5054773;28;46173;-73
2022/12/05 05:47:40;;;;;;;;;37.50;32.75;;;;;5.37;71.01;101376.06;5054758;28;45675;-74
2022/12/05 05:50:07;;;;;;;;;42.00;38.75;;;;;5.52;71.16;101405.13;5054198;28;45360;-77
2022/12/05 05:52:34;;;;;;;;;45.00;35.75;;;;;5.50;70.62;101406.94;5048055;28;45733;-74
2022/12/05 05:55:00;;;;;;;;;37.00;29.00;;;;;5.47;71.12;101411.41;5047087;28;45282;-76
2022/12/05 05:57:25;;;;;;;;;39.50;35.75;;;;;5.29;70.72;101407.22;5035790;28;45392;-74
2022/12/05 05:59:51;;;;;;;;;35.75;33.50;;;;;5.27;71.36;101414.34;5054015;28;45527;-75
2022/12/05 06:02:16;;;;;;;;;40.25;36.50;;;;;5.25;71.66;101413.50;5034758;28;45737;-74
2022/12/05 06:04:41;;;;;;;;;47.00;31.00;;;;;5.26;71.65;101415.25;5033605;28;45288;-74
2022/12/05 06:07:07;;;;;;;;;36.25;30.75;;;;;5.17;72.43;101402.09;5034045;28;45641;-75
2022/12/05 06:09:32;;;;;;;;;33.25;30.50;;;;;5.30;71.15;101428.47;5038689;28;45155;-75
2022/12/05 06:12:00;;;;;;;;;35.50;31.75;;;;;5.25;70.20;101418.81;5034053;28;45675;-75
2022/12/05 06:14:28;;;;;;;;;42.25;25.00;;;;;5.25;70.59;101425.00;5022995;28;45495;-76
2022/12/05 06:17:02;;;;;;;;;42.75;35.25;;;;;5.25;70.68;101429.44;5055220;28;45237;-76
2022/12/05 06:19:27;;;;;;;;;42.50;34.25;;;;;4.98;70.39;101408.53;5055721;28;45312;-73
2022/12/05 06:21:53;;;;;;;;;30.25;28.25;;;;;5.10;71.02;101430.53;5056272;28;45294;-75
2022/12/05 06:24:18;;;;;;;;;30.00;25.25;;;;;5.03;70.47;101438.56;5056253;28;45750;-76
2022/12/05 06:26:43;;;;;;;;;31.50;29.25;;;;;4.95;71.34;101442.19;5038880;28;45553;-76
2022/12/05 06:29:11;;;;;;;;;29.50;29.25;;;;;4.91;71.79;101432.53;5057844;28;45509;-77
2022/12/05 06:31:36;;;;;;;;;35.00;30.75;;;;;4.95;71.84;101441.31;5039029;28;45560;-76
2022/12/05 06:34:03;;;;;;;;;37.75;35.25;;;;;4.91;72.14;101434.28;5017441;28;45900;-78
2022/12/05 06:36:29;;;;;;;;;47.25;39.75;;;;;4.99;72.01;101443.06;5017486;28;45488;-74
2022/12/05 06:38:59;;;;;;;;;37.25;34.75;;;;;4.98;71.82;101451.03;5017091;28;45430;-74
2022/12/05 06:41:26;;;;;;;;;40.00;35.25;;;;;4.98;72.37;101456.34;5017208;28;45478;-77
2022/12/05 06:43:53;;;;;;;;;45.00;36.75;;;;;4.96;72.27;101453.69;5016776;28;46315;-69
2022/12/05 06:46:19;;;;;;;;;45.50;39.25;;;;;4.99;71.90;101450.13;5017665;28;45318;-76
2022/12/05 06:48:46;;;;;;;;;42.00;38.25;;;;;4.94;72.10;101453.72;5018350;28;45346;-76
2022/12/05 06:51:14;;;;;;;;;42.50;35.75;;;;;4.93;72.30;101445.78;4999070;28;46634;-75
2022/12/05 06:53:43;;;;;;;;;40.00;35.25;;;;;5.01;71.47;101467.84;5016701;28;45588;-73
2022/12/05 06:56:12;;;;;;;;;37.75;29.75;;;;;5.02;72.36;101469.56;5018229;28;45380;-74
2022/12/05 06:58:38;;;;;;;;;51.50;39.00;;;;;5.02;71.68;101466.91;5001563;28;45318;-75
2022/12/05 07:03:48;;;;;;;;;43.00;39.75;;;;;5.01;72.23;101477.59;5016594;28;45351;-75
2022/12/05 07:06:15;;;;;;;;;45.50;36.00;;;;;4.91;72.33;101459.09;5016807;28;45228;-77
2022/12/05 07:08:43;;;;;;;;;45.50;39.25;;;;;4.97;72.51;101478.50;4999000;28;45468;-75
2022/12/05 07:11:09;;;;;;;;;42.50;35.50;;;;;4.91;72.64;101477.69;5016660;28;45425;-74
2022/12/05 07:13:35;;;;;;;;;38.25;35.50;;;;;4.90;72.98;101483.00;5016146;28;46450;-76
2022/12/05 07:16:01;;;;;;;;;38.25;36.00;;;;;4.80;72.17;101495.50;5009210;28;45352;-76
2022/12/05 07:18:26;;;;;;;;;38.50;33.50;;;;;4.82;72.71;101499.03;5016486;28;45446;-79
2022/12/05 07:20:56;;;;;;;;;45.50;34.00;;;;;4.73;73.29;101484.97;5017309;28;45495;-76
2022/12/05 07:23:22;;;;;;;;;36.50;32.25;;;;;4.75;73.40;101492.03;5016336;28;46168;-76
2022/12/05 07:25:47;;;;;;;;;37.75;33.50;;;;;4.78;72.63;101497.28;5016274;28;45426;-77
2022/12/05 07:28:12;;;;;;;;;33.00;31.00;;;;;4.74;72.08;101490.25;5016634;28;45258;-76
2022/12/05 07:30:38;;;;;;;;;39.25;29.75;;;;;4.73;72.14;101506.22;5018655;28;45439;-76
2022/12/05 07:33:03;;;;;;;;;39.00;32.25;;;;;4.66;72.14;101507.16;5056057;28;45442;-74
2022/12/05 07:35:28;;;;;;;;;46.25;32.25;;;;;4.63;72.82;101501.88;5038131;28;45428;-74
2022/12/05 07:37:55;;;;;;;;;47.50;35.25;;;;;4.68;72.78;101513.34;5051938;28;45510;-73
2022/12/05 07:40:21;;;;;;;;;40.25;33.00;;;;;4.55;73.04;101489.56;5052734;28;45514;-74
2022/12/05 07:42:49;;;;;;;;;44.25;38.50;;;;;4.76;72.66;101515.03;5054447;28;46566;-75
2022/12/05 07:45:15;;;;;;;;;41.75;35.50;;;;;4.77;73.28;101510.56;5036388;28;45454;-74
2022/12/05 07:47:41;;;;;;;;;40.50;34.00;;;;;4.89;73.46;101524.63;5051744;28;45575;-74
2022/12/05 07:50:07;;;;;;;;;38.00;35.25;;;;;4.90;73.10;101512.22;5054207;28;45515;-74
2022/12/05 07:52:32;;;;;;;;;40.25;32.25;;;;;4.92;72.76;101503.34;5052989;28;45473;-74
2022/12/05 07:54:58;;;;;;;;;36.50;32.50;;;;;5.10;72.51;101535.94;5052015;28;45494;-74
2022/12/05 07:57:24;;;;;;;;;36.50;32.75;;;;;5.07;72.53;101520.91;5054756;28;45474;-75
2022/12/05 07:59:49;;;;;;;;;43.50;31.50;;;;;5.08;72.37;101511.16;5067249;28;45477;-75
2022/12/05 08:02:14;;;;;;;;;42.25;34.00;;;;;5.16;71.23;101518.16;5054172;28;45559;-74
2022/12/05 08:04:42;;;;;;;;;30.00;28.50;;;;;5.23;71.53;101534.91;5055333;28;46039;-75
2022/12/05 08:07:10;;;;;;;;;41.75;34.00;;;;;5.20;71.25;101533.16;5054222;28;45474;-73
2022/12/05 08:09:36;;;;;;;;;37.00;30.50;;;;;5.23;71.16;101537.56;5055064;28;45449;-75
2022/12/05 08:12:01;;;;;;;;;37.50;29.25;;;;;5.14;70.56;101557.16;5054883;28;45398;-75
2022/12/05 08:14:27;;;;;;;;;40.25;33.50;;;;;5.07;71.74;101546.59;5042746;28;45459;-74
2022/12/05 08:16:52;;;;;;;;;43.00;36.50;;;;;5.09;71.29;101560.75;5055151;28;45537;-75
2022/12/05 08:19:18;;;;;;;;;52.67;44.67;;;;;5.01;72.14;101565.28;5055072;28;45732;-74
2022/12/05 08:21:43;;;;;;;;;54.33;43.33;;;;;4.90;72.58;101565.38;5036452;28;47101;-74
2022/12/05 08:24:12;;;;;;;;;35.25;32.50;;;;;4.85;72.25;101544.16;5054760;28;45359;-75
2022/12/05 08:26:38;;;;;;;;;40.50;31.75;;;;;4.95;72.88;101550.25;5054700;28;45308;-76
2022/12/05 08:29:12;;;;;;;;;44.50;38.75;;;;;4.70;72.15;101509.75;5053039;28;45411;-75
2022/12/05 08:31:46;;;;;;;;;41.50;36.75;;;;;4.91;71.41;101562.69;5052751;28;46442;-76
2022/12/05 08:34:13;;;;;;;;;38.50;35.25;;;;;4.86;72.22;101548.56;5054664;28;45383;-77
2022/12/05 08:36:39;;;;;;;;;47.50;39.00;;;;;4.86;71.24;101555.66;5055103;28;45367;-75
2022/12/05 08:39:06;;;;;;;;;55.00;42.33;;;;;4.81;72.27;101555.72;5054459;28;45332;-74
2022/12/05 08:41:33;;;;;;;;;39.00;36.00;;;;;4.82;72.07;101565.44;5054988;28;46809;-77
2022/12/05 08:44:02;;;;;;;;;37.75;32.50;;;;;4.68;72.50;101553.19;5054246;28;45446;-74
2022/12/05 08:46:32;;;;;;;;;44.00;38.75;;;;;4.69;72.55;101571.75;5055360;28;45429;-75
2022/12/05 08:48:59;;;;;;;;;39.25;36.00;;;;;4.58;72.62;101576.28;5036126;28;45983;-77
2022/12/05 08:51:24;;;;;;;;;46.33;43.00;;;;;4.58;73.26;101573.63;5053793;28;45315;-75
2022/12/05 08:53:49;;;;;;;;;44.25;41.50;;;;;4.61;72.96;101575.34;5052379;28;45379;-75
2022/12/05 08:56:15;;;;;;;;;53.50;42.00;;;;;4.38;72.82;101543.69;5046859;28;45328;-76
2022/12/05 08:58:41;;;;;;;;;46.75;38.75;;;;;4.54;73.52;101569.22;5039793;28;45472;-77
2022/12/05 09:01:12;;;;;;;;;46.75;40.75;;;;;4.58;73.62;101578.94;5065527;28;45375;-76
2022/12/05 09:03:39;;;;;;;;;42.25;34.25;;;;;4.52;73.43;101563.03;5056595;28;45998;-76
2022/12/05 09:06:13;;;;;;;;;45.25;39.50;;;;;4.63;74.22;101589.50;5056917;28;45474;-74
2022/12/05 09:08:40;;;;;;;;;50.25;41.75;;;;;4.66;74.32;101582.41;5056101;28;45566;-76
2022/12/05 09:11:08;;;;;;;;;46.00;37.25;;;;;4.71;74.37;101577.03;5054914;28;46435;-77
2022/12/05 09:13:34;;;;;;;;;34.50;33.25;;;;;4.86;73.84;101596.38;5049841;28;45388;-76
2022/12/05 09:16:18;;;;;;;;;42.25;37.25;;;;;4.87;73.71;101591.94;5044220;28;45950;-76
2022/12/05 09:18:44;;;;;;;;;42.50;36.00;;;;;4.96;73.22;101594.53;5022004;28;46510;-76
2022/12/05 09:21:12;;;;;;;;;51.50;42.00;;;;;4.96;72.41;101586.56;5032355;28;47362;-76
2022/12/05 09:23:39;;;;;;;;;52.00;39.50;;;;;4.98;73.76;101590.09;5054311;28;45776;-73
2022/12/05 09:26:06;;;;;;;;;44.50;41.50;;;;;4.99;73.29;101594.50;5054162;28;45502;-75
2022/12/05 09:28:32;;;;;;;;;54.00;43.25;;;;;5.00;72.78;101604.25;5054038;28;45504;-75
2022/12/05 09:31:01;;;;;;;;;47.50;34.75;;;;;4.95;72.50;101595.41;5054227;28;46190;-74
2022/12/05 09:33:27;;;;;;;;;51.75;38.25;;;;;4.81;73.11;101579.63;5054622;28;45477;-74
2022/12/05 09:35:52;;;;;;;;;44.25;37.50;;;;;4.82;73.05;101591.13;5053736;28;45481;-75
2022/12/05 09:38:17;;;;;;;;;33.25;30.00;;;;;4.85;73.70;101591.97;5054739;28;45275;-76
2022/12/05 09:40:43;;;;;;;;;45.25;41.50;;;;;4.91;74.09;101597.25;5053666;28;45424;-76
2022/12/05 09:43:35;;;;;;;;;43.50;40.25;;;;;4.98;73.20;101600.72;5054091;28;45421;-74
2022/12/05 09:46:19;;;;;;;;;53.75;40.50;;;;;5.09;71.76;101606.81;5054398;28;45223;-77
2022/12/05 09:48:46;;;;;;;;;41.25;37.50;;;;;5.05;71.50;101617.47;5053625;28;45418;-76
2022/12/05 09:51:11;;;;;;;;;45.75;35.75;;;;;5.02;71.98;101610.41;5053314;28;46191;-75
2022/12/05 09:53:40;;;;;;;;;51.00;38.75;;;;;4.85;71.39;101593.72;5052962;28;45497;-75
2022/12/05 09:56:08;;;;;;;;;50.25;42.75;;;;;5.02;71.16;101622.84;5035493;28;45297;-75
2022/12/05 09:58:45;;;;;;;;;49.25;42.25;;;;;4.98;71.15;101624.63;5054906;28;45419;-76
2022/12/05 10:01:23;;;;;;;;;47.50;40.00;;;;;4.95;71.25;101619.34;5063645;28;46101;-76
2022/12/05 10:04:30;;;;;;;;;41.75;37.00;;;;;4.90;71.11;101619.38;5056544;28;45461;-74
2022/12/05 10:07:07;;;;;;;;;45.50;39.00;;;;;4.82;71.44;101625.66;5031197;28;45525;-75
2022/12/05 10:10:01;;;;;;;;;50.25;41.25;;;;;4.87;71.44;101619.41;5057567;28;45369;-74
2022/12/05 10:12:29;;;;;;;;;44.00;41.75;;;;;4.92;71.28;101627.34;5057740;28;45481;-74
2022/12/05 10:15:37;;;;;;;;;51.25;43.25;;;;;4.89;71.76;101630.03;5045043;28;45374;-73
2022/12/05 10:18:13;;;;;;;;;54.00;44.25;;;;;4.89;71.96;101628.25;5046913;28;45350;-75
2022/12/05 10:20:54;;;;;;;;;44.50;39.25;;;;;4.85;71.50;101622.97;5057008;28;45361;-73
2022/12/05 10:23:22;;;;;;;;;59.00;46.00;;;;;4.83;71.32;101627.44;5057158;28;46610;-75
2022/12/05 10:25:54;;;;;;;;;56.25;45.00;;;;;4.83;71.89;101633.63;5039387;28;45532;-75
2022/12/05 10:28:38;;;;;;;;;54.75;39.25;;;;;4.86;72.20;101622.06;5058143;28;45412;-75
2022/12/05 10:31:09;;;;;;;;;48.50;43.00;;;;;4.92;70.70;101630.91;5039208;28;46712;-74
2022/12/05 10:33:39;;;;;;;;;47.00;42.75;;;;;4.75;71.48;101616.88;5056397;28;45494;-74
2022/12/05 10:36:14;;;;;;;;;59.00;42.00;;;;;4.74;71.00;101619.53;5056706;28;45526;-75
2022/12/05 10:38:43;;;;;;;;;57.00;42.50;;;;;4.61;71.72;101608.09;5057374;28;45460;-76
2022/12/05 10:41:13;;;;;;;;;49.75;41.00;;;;;4.74;71.93;101630.16;5039275;28;47902;-74
2022/12/05 10:43:43;;;;;;;;;42.25;37.00;;;;;4.81;71.42;101640.72;5057998;28;46293;-73
2022/12/05 10:46:11;;;;;;;;;51.50;42.25;;;;;4.76;71.47;101629.25;5058385;28;45437;-74
2022/12/05 10:48:39;;;;;;;;;52.00;42.00;;;;;4.77;71.53;101628.34;5057834;28;45447;-75
2022/12/05 10:51:05;;;;;;;;;45.75;39.50;;;;;4.75;71.22;101624.84;5058741;28;45315;-76
2022/12/05 10:53:38;;;;;;;;;53.50;41.50;;;;;4.85;72.07;101633.59;5058355;28;45513;-79
2022/12/05 10:56:56;;;;;;;;;52.00;40.25;;;;;4.59;70.26;101595.75;5058826;28;45476;-75
2022/12/05 10:59:25;;;;;;;;;48.25;42.25;;;;;4.69;71.59;101622.22;5031165;28;45479;-74
2022/12/05 11:01:51;;;;;;;;;49.50;42.25;;;;;4.79;71.38;101638.97;5060462;28;45417;-74
2022/12/05 11:04:24;;;;;;;;;53.25;42.00;;;;;4.70;71.32;101623.09;5056651;28;45319;-75
2022/12/05 11:07:04;;;;;;;;;58.50;43.25;;;;;4.76;71.69;101634.56;5056671;28;45359;-74
2022/12/05 11:09:35;;;;;;;;;54.25;43.00;;;;;4.79;72.05;101629.22;5056925;28;45370;-75
2022/12/05 11:12:25;;;;;;;;;54.50;44.75;;;;;4.77;72.08;101620.38;5057078;28;45557;-75
2022/12/05 11:15:05;;;;;;;;;57.75;43.50;;;;;5.00;71.69;101644.13;5056405;28;46375;-73
2022/12/05 11:17:37;;;;;;;;;52.50;42.00;;;;;5.00;71.51;101636.13;5038579;28;45587;-74
2022/12/05 11:20:22;;;;;;;;;41.25;39.75;;;;;5.04;71.49;101636.97;5057086;28;45261;-77
2022/12/05 11:22:53;;;;;;;;;56.50;46.00;;;;;4.95;71.08;101625.53;5056363;28;45649;-77
2022/12/05 11:25:30;;;;;;;;;55.50;43.75;;;;;5.00;70.91;101643.22;5037266;28;47537;-75
2022/12/05 11:28:15;;;;;;;;;42.00;37.75;;;;;5.07;70.71;101644.94;5054900;28;46563;-73
2022/12/05 11:31:04;;;;;;;;;49.50;41.50;;;;;4.94;69.45;101637.06;5056901;28;45541;-78
2022/12/05 11:33:33;;;;;;;;;43.75;35.50;;;;;5.00;69.96;101644.13;5038370;28;45406;-73
2022/12/05 11:36:22;;;;;;;;;50.75;41.25;;;;;4.79;68.81;101609.75;5055995;28;45793;-78
2022/12/05 11:38:57;;;;;;;;;57.33;45.67;;;;;4.86;69.97;101614.09;5055489;28;45473;-77
2022/12/05 11:41:42;;;;;;;;;50.50;40.50;;;;;5.08;68.58;101642.25;5056489;28;45403;-77
2022/12/05 11:44:43;;;;;;;;;60.00;43.25;;;;;4.93;68.67;101614.03;5037699;28;45501;-75
2022/12/05 11:47:14;;;;;;;;;44.00;39.25;;;;;5.05;69.10;101641.41;5055761;28;45410;-76
2022/12/05 11:50:07;;;;;;;;;52.00;43.25;;;;;5.05;68.89;101642.28;5055850;28;45470;-75
2022/12/05 11:52:51;;;;;;;;;52.00;43.50;;;;;5.03;69.09;101636.09;5055213;28;45509;-78
2022/12/05 11:55:24;;;;;;;;;39.75;37.25;;;;;5.01;68.84;101639.69;5056028;28;45448;-76
2022/12/05 11:57:50;;;;;;;;;51.25;47.00;;;;;5.03;68.90;101627.22;5056892;28;45530;-76
2022/12/05 12:00:18;;;;;;;;;59.00;43.33;;;;;4.95;68.95;101628.19;5068072;28;45515;-75
2022/12/05 12:03:20;;;;;;;;;47.50;42.00;;;;;4.92;69.09;101627.34;5055844;28;45506;-75
2022/12/05 12:05:51;;;;;;;;;31.75;29.00;;;;;4.99;69.83;101621.09;5044223;28;45962;-73
2022/12/05 12:08:28;;;;;;;;;52.75;42.00;;;;;5.06;69.96;101622.78;5037073;28;47183;-73
2022/12/05 12:11:02;;;;;;;;;47.25;41.25;;;;;5.15;69.35;101622.69;5037187;28;45509;-74
2022/12/05 12:13:49;;;;;;;;;61.00;41.67;;;;;5.08;69.42;101615.69;5051457;28;45310;-72
2022/12/05 12:16:41;;;;;;;;;51.50;41.25;;;;;5.09;69.50;101605.94;5049762;28;45680;-75
2022/12/05 12:19:30;;;;;;;;;43.75;39.75;;;;;5.14;69.74;101612.97;5043158;28;45937;-75
2022/12/05 12:22:17;;;;;;;;;47.75;41.25;;;;;5.20;68.94;101614.66;5055453;28;45390;-74
2022/12/05 12:25:07;;;;;;;;;44.00;41.25;;;;;5.16;68.96;101615.59;5055309;28;45358;-75
2022/12/05 12:27:32;;;;;;;;;51.25;44.00;;;;;5.14;69.27;101618.28;5037355;28;47258;-75
2022/12/05 12:30:02;;;;;;;;;44.25;35.75;;;;;5.18;69.01;101622.69;5055686;28;46407;-75
2022/12/05 12:32:46;;;;;;;;;53.50;42.75;;;;;5.13;68.64;101616.50;5054426;28;45499;-74
2022/12/05 12:35:27;;;;;;;;;49.75;40.50;;;;;5.18;68.94;101617.38;5055134;28;45452;-76
2022/12/05 12:38:13;;;;;;;;;58.75;47.00;;;;;5.22;68.88;101618.19;5055247;28;45585;-73
2022/12/05 12:40:49;;;;;;;;;49.25;44.25;;;;;5.18;68.88;101603.19;5055415;28;45358;-72
2022/12/05 12:43:41;;;;;;;;;47.25;42.50;;;;;5.24;68.99;101611.09;5037913;28;45422;-75
2022/12/05 12:46:32;;;;;;;;;63.00;46.67;;;;;5.14;68.65;101612.97;5055389;28;45436;-76
2022/12/05 12:49:24;;;;;;;;;56.00;46.00;;;;;5.16;68.66;101621.81;5054810;28;45331;-76
2022/12/05 12:52:00;;;;;;;;;52.50;45.00;;;;;5.10;68.55;101608.59;5055089;28;45332;-79
2022/12/05 12:54:56;;;;;;;;;52.67;45.00;;;;;5.17;69.22;101626.22;5053071;28;45498;-73
2022/12/05 12:57:46;;;;;;;;;63.67;46.67;;;;;5.18;68.97;101621.81;5056211;28;45387;-77
2022/12/05 13:00:36;;;;;;;;;54.00;45.50;;;;;5.05;68.31;101596.22;5050979;28;45545;-79
2022/12/05 13:03:16;;;;;;;;;45.75;42.75;;;;;5.13;68.96;101626.25;5046021;28;46173;-76
2022/12/05 13:05:49;;;;;;;;;54.50;45.25;;;;;5.16;69.01;101621.81;5056976;28;45364;-78
2022/12/05 13:08:37;;;;;;;;;53.67;43.00;;;;;5.19;68.88;101621.75;5052209;28;45437;-76
2022/12/05 13:11:07;;;;;;;;;66.25;43.00;;;;;4.95;68.32;101584.78;5053501;28;45302;-77
2022/12/05 13:13:37;;;;;;;;;58.50;43.25;;;;;5.12;68.19;101629.81;5048717;28;45347;-76
2022/12/05 13:16:06;;;;;;;;;52.75;41.00;;;;;5.10;68.76;101613.03;5046393;28;45908;-73
2022/12/05 13:18:33;;;;;;;;;56.00;43.25;;;;;5.13;68.14;101615.63;5052483;28;45523;-77
2022/12/05 13:21:04;;;;;;;;;52.25;42.75;;;;;5.05;68.62;101596.22;5047932;28;45714;-74
2022/12/05 13:23:46;;;;;;;;;47.25;42.75;;;;;4.97;67.84;101595.41;5049053;28;45514;-75
2022/12/05 13:26:13;;;;;;;;;47.75;40.75;;;;;5.11;68.70;101612.97;5039540;28;45525;-75
2022/12/05 13:28:57;;;;;;;;;57.00;40.67;;;;;5.12;68.78;101611.19;5035481;28;45347;-75
2022/12/05 13:31:37;;;;;;;;;54.00;41.33;;;;;5.13;69.05;101611.19;5045080;28;45412;-75
2022/12/05 13:34:03;;;;;;;;;50.50;41.00;;;;;5.07;68.63;101584.69;5052648;28;45623;-75
2022/12/05 13:42:30;;;;;;;;;39.25;33.25;;;;;5.27;69.02;101588.00;5052451;28;45367;-75
2022/12/05 13:45:18;;;;;;;;;52.33;43.33;;;;;5.25;69.05;101583.63;5034470;28;47360;-76
2022/12/05 13:47:58;;;;;;;;;56.00;43.25;;;;;5.40;67.93;101607.38;5052790;28;45377;-77
2022/12/05 13:50:30;;;;;;;;;52.50;41.00;;;;;5.36;68.74;101600.31;5053696;28;45466;-76
2022/12/05 13:53:23;;;;;;;;;51.50;43.50;;;;;5.41;68.50;101598.50;5053094;28;45482;-75
2022/12/05 13:56:03;;;;;;;;;54.25;43.25;;;;;5.49;68.68;101599.28;5035068;28;45580;-75
2022/12/05 13:58:51;;;;;;;;;50.00;41.75;;;;;5.49;68.17;101599.28;5054876;28;45402;-76
2022/12/05 14:01:26;;;;;;;;;55.75;43.00;;;;;5.49;68.14;101609.94;5062266;28;45540;-75
2022/12/05 14:03:52;;;;;;;;;53.50;42.50;;;;;5.50;68.34;101603.72;5040745;28;45906;-78
2022/12/05 14:06:38;;;;;;;;;53.75;42.25;;;;;5.53;68.19;101603.66;5054881;28;46202;-75
2022/12/05 14:09:16;;;;;;;;;53.50;41.50;;;;;5.49;68.51;101593.09;5030134;28;45379;-76
2022/12/05 14:12:13;;;;;;;;;53.00;39.75;;;;;5.46;68.26;101601.97;5054847;28;45232;-76
2022/12/05 14:14:54;;;;;;;;;50.00;41.33;;;;;5.40;68.67;101601.19;5011393;28;45652;-76
2022/12/05 14:17:28;;;;;;;;;51.25;44.50;;;;;5.29;68.34;101575.59;5038874;28;47021;-76
2022/12/05 14:20:28;;;;;;;;;53.50;43.75;;;;;5.39;68.40;101597.63;5053768;28;45828;-76
2022/12/05 14:23:33;;;;;;;;;46.25;40.75;;;;;5.46;68.82;101599.31;5054395;28;45447;-76
2022/12/05 14:26:12;;;;;;;;;50.50;41.00;;;;;5.55;68.39;101598.34;5055942;28;45492;-76
2022/12/05 14:29:05;;;;;;;;;43.75;39.50;;;;;5.55;67.24;101611.63;5055866;28;46241;-74
2022/12/05 14:31:46;;;;;;;;;51.75;42.50;;;;;5.42;67.80;101608.25;5016852;28;45345;-76
2022/12/05 14:34:23;;;;;;;;;51.00;41.25;;;;;5.38;68.08;101605.63;5053839;28;45557;-75
2022/12/05 14:37:14;;;;;;;;;56.75;41.50;;;;;5.14;68.85;101580.19;5053001;28;45505;-79
2022/12/05 14:39:46;;;;;;;;;55.00;41.00;;;;;5.40;69.16;101620.66;5025799;28;47115;-77
2022/12/05 14:42:34;;;;;;;;;49.00;40.00;;;;;5.40;68.57;101610.03;5047689;28;45509;-76
2022/12/05 14:45:20;;;;;;;;;53.75;41.00;;;;;5.36;68.16;101612.75;5052813;28;45360;-76
2022/12/05 14:47:52;;;;;;;;;52.00;41.25;;;;;5.32;68.82;101622.53;5051478;28;45673;-77
2022/12/05 14:50:33;;;;;;;;;46.25;42.00;;;;;5.35;68.83;101626.94;5036547;28;46258;-75
2022/12/05 14:53:14;;;;;;;;;47.50;42.00;;;;;5.36;68.94;101621.59;5035959;28;45964;-77
2022/12/05 14:55:51;;;;;;;;;40.25;38.00;;;;;5.34;67.96;101626.06;5056649;28;45487;-75
2022/12/05 14:58:41;;;;;;;;;57.33;41.33;;;;;5.29;68.50;101622.56;5056954;28;45186;-76
2022/12/05 15:01:42;;;;;;;;;55.25;43.00;;;;;5.28;68.44;101632.31;5049776;28;45446;-76
2022/12/05 15:04:10;;;;;;;;;57.75;45.50;;;;;5.35;69.24;101635.81;5047698;28;45383;-75
2022/12/05 15:06:48;;;;;;;;;43.75;38.00;;;;;5.35;68.15;101611.88;5054858;28;45344;-77
2022/12/05 15:09:49;;;;;;;;;49.25;39.00;;;;;5.49;68.54;101633.88;5057928;28;45577;-75
2022/12/05 15:12:24;;;;;;;;;51.75;41.25;;;;;5.54;68.26;101637.34;5051752;28;46396;-76
2022/12/05 15:15:00;;;;;;;;;51.25;41.50;;;;;5.59;68.19;101632.88;5043879;28;45442;-76
2022/12/05 15:17:36;;;;;;;;;45.25;38.00;;;;;5.65;68.13;101643.44;5056836;28;45359;-76
2022/12/05 15:20:14;;;;;;;;;44.00;40.25;;;;;5.53;67.85;101614.31;5055822;28;45397;-77
2022/12/05 15:22:39;;;;;;;;;48.50;41.25;;;;;5.48;67.16;101613.50;5056339;28;46070;-76
2022/12/05 15:25:34;;;;;;;;;50.00;40.00;;;;;5.60;67.53;101641.75;5055646;28;45457;-75
2022/12/05 15:28:18;;;;;;;;;41.25;36.25;;;;;5.51;67.43;101641.84;5041111;28;45560;-76
2022/12/05 15:30:54;;;;;;;;;39.50;35.50;;;;;5.30;67.24;101626.97;5054060;28;45549;-76
2022/12/05 15:33:19;;;;;;;;;48.50;41.00;;;;;5.41;67.35;101646.38;5048361;28;45494;-76
2022/12/05 15:35:50;;;;;;;;;50.00;41.25;;;;;5.45;68.20;101648.09;5045796;28;45395;-76
2022/12/05 15:38:35;;;;;;;;;46.75;37.00;;;;;5.40;67.36;101630.44;5033904;28;45590;-75
2022/12/05 15:41:00;;;;;;;;;47.00;38.00;;;;;5.44;68.42;101637.50;5051176;28;45416;-75
2022/12/05 15:43:31;;;;;;;;;45.50;36.75;;;;;5.50;68.37;101626.78;5035533;28;47168;-76
2022/12/05 15:46:26;;;;;;;;;50.50;40.00;;;;;5.46;68.26;101623.25;5054612;28;45231;-77
2022/12/05 15:48:58;;;;;;;;;39.25;37.25;;;;;5.53;67.81;101638.25;5020677;28;45247;-77
2022/12/05 15:51:36;;;;;;;;;48.50;39.75;;;;;5.47;67.60;101616.16;5053531;28;45296;-76
2022/12/05 15:54:14;;;;;;;;;38.00;32.00;;;;;5.55;67.74;101636.44;5034095;28;46009;-77
2022/12/05 15:57:02;;;;;;;;;34.75;31.75;;;;;5.52;66.86;101640.94;5036459;28;45360;-75
2022/12/05 15:59:35;;;;;;;;;34.75;30.50;;;;;5.42;67.61;101637.50;5029968;28;45450;-72
2022/12/05 16:02:13;;;;;;;;;45.75;34.25;;;;;5.47;67.76;101648.06;5055605;28;45417;-78
2022/12/05 16:04:56;;;;;;;;;38.25;32.75;;;;;5.46;67.98;101646.31;5049517;28;45340;-77
2022/12/05 16:07:25;;;;;;;;;39.50;35.25;;;;;5.44;68.04;101637.50;5040437;28;45329;-74
2022/12/05 16:09:56;;;;;;;;;41.50;40.00;;;;;5.55;68.09;101641.78;5055322;28;45425;-78
2022/12/05 16:12:37;;;;;;;;;40.75;32.50;;;;;5.44;67.83;101624.19;5055518;28;45379;-76
2022/12/05 16:15:25;;;;;;;;;39.25;32.00;;;;;5.64;68.02;101648.78;5036153;28;48753;-75
2022/12/05 16:17:56;;;;;;;;;44.00;34.75;;;;;5.61;67.28;101639.03;5031997;28;45557;-77
2022/12/05 16:20:33;;;;;;;;;41.75;34.00;;;;;5.75;67.70;101651.31;5055709;28;45461;-75
2022/12/05 16:23:03;;;;;;;;;42.00;33.75;;;;;5.76;67.28;101650.41;5051921;28;45751;-76
2022/12/05 16:25:34;;;;;;;;;35.75;33.00;;;;;5.82;66.50;101648.56;5053491;28;45815;-76
2022/12/05 16:28:16;;;;;;;;;38.50;32.75;;;;;5.85;66.78;101661.84;5049882;28;45812;-74
2022/12/05 16:30:54;;;;;;;;;41.25;33.25;;;;;5.92;67.41;101660.91;5036464;28;45622;-76
2022/12/05 16:33:19;;;;;;;;;39.00;30.75;;;;;5.95;66.90;101652.88;5049490;28;45555;-74
2022/12/05 16:35:47;;;;;;;;;32.25;32.00;;;;;5.99;67.37;101651.94;5054088;28;46716;-75
2022/12/05 16:38:15;;;;;;;;;33.75;32.00;;;;;6.06;66.60;101663.38;5055594;28;45398;-74
2022/12/05 16:40:43;;;;;;;;;30.75;26.00;;;;;6.07;67.16;101666.03;5054509;28;45251;-76
2022/12/05 16:43:38;;;;;;;;;30.75;27.00;;;;;6.11;66.33;101666.88;5055687;28;45410;-72
2022/12/05 16:46:39;;;;;;;;;34.25;27.50;;;;;6.12;66.62;101671.31;5019720;28;47424;-73
2022/12/05 16:49:29;;;;;;;;;34.00;32.00;;;;;6.18;66.51;101671.22;5055242;28;46023;-74
2022/12/05 16:51:58;;;;;;;;;32.25;30.00;;;;;6.17;65.86;101658.81;5054745;28;45316;-74
2022/12/05 16:54:23;;;;;;;;;35.25;31.75;;;;;6.23;65.14;101673.81;5055184;28;45358;-74
2022/12/05 16:56:49;;;;;;;;;33.75;32.50;;;;;6.23;65.51;101673.81;5036444;28;47024;-74
2022/12/05 16:59:36;;;;;;;;;32.00;31.75;;;;;6.26;65.87;101676.44;5043471;28;45598;-75
2022/12/05 17:02:06;;;;;;;;;43.75;38.75;;;;;6.26;65.83;101679.97;5038051;28;45433;-77
2022/12/05 17:04:31;;;;;;;;;25.00;25.00;;;;;6.16;65.55;101659.69;5052682;28;45719;-79
2022/12/05 17:06:57;;;;;;;;;27.00;25.25;;;;;6.31;65.81;101678.13;5054797;28;45307;-76
2022/12/05 17:09:22;;;;;;;;;28.50;27.75;;;;;6.33;65.78;101680.78;5054655;28;45443;-76
2022/12/05 17:11:51;;;;;;;;;31.50;30.00;;;;;6.34;65.46;101682.53;5035658;28;45463;-74
2022/12/05 17:14:18;;;;;;;;;32.25;26.75;;;;;6.32;65.14;101682.56;5046653;28;45227;-75
2022/12/05 17:16:44;;;;;;;;;28.00;25.00;;;;;6.36;64.04;101684.28;5055214;28;46174;-73
2022/12/05 17:19:13;;;;;;;;;26.25;25.75;;;;;6.37;64.86;101695.81;5055050;28;45358;-70
2022/12/05 17:21:41;;;;;;;;;29.00;29.00;;;;;6.37;64.52;101691.38;5055215;28;45379;-72
2022/12/05 17:24:11;;;;;;;;;37.50;32.50;;;;;6.40;64.46;101693.97;5021207;28;46838;-71
2022/12/05 17:26:37;;;;;;;;;29.00;28.50;;;;;6.30;64.52;101676.34;5056111;28;45422;-73